createdAt,value
2018-07-08T00:00:32.354Z,94600.76
2018-07-08T00:03:01.727Z,94599.90
2018-07-08T00:05:31.082Z,94605.12
2018-07-08T00:08:00.735Z,94603.17
2018-07-08T00:10:30.015Z,94610.41
2018-07-08T00:12:59.292Z,94603.67
2018-07-08T00:15:28.560Z,94597.37
2018-07-08T00:17:58.820Z,94598.88
2018-07-08T00:20:28.346Z,94597.41
2018-07-08T00:22:57.729Z,94596.27
2018-07-08T00:25:27.275Z,94593.68
2018-07-08T00:27:56.696Z,94591.54
2018-07-08T00:30:26.000Z,94585.83
2018-07-08T00:32:55.417Z,94587.66
2018-07-08T00:35:24.717Z,94587.63
2018-07-08T00:37:54.901Z,94580.47
2018-07-08T00:40:24.613Z,94578.00
2018-07-08T00:42:54.168Z,94580.00
2018-07-08T00:45:23.666Z,94582.50
2018-07-08T00:47:53.190Z,94581.48
2018-07-08T00:50:22.438Z,94575.39
2018-07-08T00:52:51.706Z,94583.22
2018-07-08T00:55:20.945Z,94578.12
2018-07-08T00:57:50.307Z,94572.08
2018-07-08T01:00:36.986Z,94572.25
2018-07-08T01:03:09.570Z,94567.94
2018-07-08T01:05:38.932Z,94569.47
2018-07-08T01:08:08.387Z,94571.31
2018-07-08T01:10:37.825Z,94572.98
2018-07-08T01:13:07.247Z,94578.84
2018-07-08T01:15:36.619Z,94575.55
2018-07-08T01:18:05.995Z,94572.14
2018-07-08T01:20:35.527Z,94576.05
2018-07-08T01:23:04.856Z,94567.33
2018-07-08T01:25:45.474Z,94573.27
2018-07-08T01:28:15.219Z,94566.24
2018-07-08T01:30:44.601Z,94569.51
2018-07-08T01:33:14.086Z,94561.83
2018-07-08T01:35:43.597Z,94568.17
2018-07-08T01:38:12.845Z,94566.90
2018-07-08T01:40:42.264Z,94560.02
2018-07-08T01:43:11.621Z,94560.73
2018-07-08T01:45:40.874Z,94559.94
2018-07-08T01:48:10.226Z,94552.98
2018-07-08T01:50:39.606Z,94554.47
2018-07-08T01:53:10.211Z,94556.84
2018-07-08T01:55:39.656Z,94551.80
2018-07-08T01:58:09.024Z,94546.98
2018-07-08T02:00:38.460Z,94550.78
2018-07-08T02:03:07.910Z,94552.35
2018-07-08T02:05:37.453Z,94551.20
2018-07-08T02:08:06.722Z,94545.78
2018-07-08T02:10:36.527Z,94546.80
2018-07-08T02:13:05.997Z,94543.86
2018-07-08T02:15:35.512Z,94544.66
2018-07-08T02:18:05.009Z,94550.53
2018-07-08T02:20:34.359Z,94546.05
2018-07-08T02:23:03.573Z,94543.00
2018-07-08T02:25:33.143Z,94547.88
2018-07-08T02:28:02.520Z,94547.06
2018-07-08T02:30:31.979Z,94543.52
2018-07-08T02:33:01.344Z,94546.19
2018-07-08T02:35:30.937Z,94542.09
2018-07-08T02:38:00.379Z,94547.30
2018-07-08T02:40:29.715Z,94541.77
2018-07-08T02:42:59.208Z,94544.37
2018-07-08T02:45:28.640Z,94541.14
2018-07-08T02:47:57.889Z,94539.75
2018-07-08T02:50:27.466Z,94543.66
2018-07-08T02:52:56.716Z,94539.47
2018-07-08T02:55:26.075Z,94543.73
2018-07-08T02:57:55.300Z,94536.36
2018-07-08T03:00:24.637Z,94546.56
2018-07-08T03:02:53.946Z,94540.72
2018-07-08T03:05:23.325Z,94541.77
2018-07-08T03:07:52.882Z,94539.69
2018-07-08T03:10:22.323Z,94536.98
2018-07-08T03:12:51.671Z,94540.97
2018-07-08T03:15:20.940Z,94541.42
2018-07-08T03:17:50.389Z,94535.56
2018-07-08T03:20:19.631Z,94536.20
2018-07-08T03:22:49.015Z,94537.36
2018-07-08T03:25:18.530Z,94540.32
2018-07-08T03:27:47.932Z,94540.70
2018-07-08T03:30:17.250Z,94536.28
2018-07-08T03:32:46.862Z,94544.73
2018-07-08T03:35:16.362Z,94541.84
2018-07-08T03:37:45.702Z,94540.83
2018-07-08T03:40:15.060Z,94537.94
2018-07-08T03:42:44.399Z,94535.39
2018-07-08T03:45:13.662Z,94534.88
2018-07-08T03:47:42.832Z,94538.73
2018-07-08T03:50:12.210Z,94540.92
2018-07-08T03:52:41.587Z,94539.88
2018-07-08T03:55:10.943Z,94539.56
2018-07-08T03:57:40.663Z,94543.73
2018-07-08T04:00:10.064Z,94541.92
2018-07-08T04:02:39.840Z,94546.15
2018-07-08T04:05:09.223Z,94543.31
2018-07-08T04:07:38.750Z,94539.47
2018-07-08T04:10:08.171Z,94549.58
2018-07-08T04:12:37.411Z,94551.68
2018-07-08T04:15:06.665Z,94552.77
2018-07-08T04:17:36.086Z,94553.56
2018-07-08T04:20:05.559Z,94552.28
2018-07-08T04:22:34.887Z,94552.25
2018-07-08T04:25:04.137Z,94557.28
2018-07-08T04:27:33.989Z,94554.28
2018-07-08T04:30:03.394Z,94553.55
2018-07-08T04:32:32.714Z,94549.98
2018-07-08T04:35:02.048Z,94549.84
2018-07-08T04:37:31.596Z,94556.15
2018-07-08T04:40:00.923Z,94553.20
2018-07-08T04:42:30.336Z,94551.50
2018-07-08T04:44:59.645Z,94552.38
2018-07-08T04:47:29.238Z,94559.77
2018-07-08T04:49:58.475Z,94555.53
2018-07-08T04:52:27.846Z,94559.85
2018-07-08T04:54:57.076Z,94555.53
2018-07-08T04:57:26.562Z,94552.37
2018-07-08T04:59:55.919Z,94555.38
2018-07-08T05:02:25.335Z,94554.48
2018-07-08T05:04:54.680Z,94552.30
2018-07-08T05:07:24.127Z,94549.89
2018-07-08T05:09:53.487Z,94542.11
2018-07-08T05:12:23.021Z,94542.16
2018-07-08T05:14:52.354Z,94541.56
2018-07-08T05:17:22.162Z,94543.69
2018-07-08T05:19:51.365Z,94543.56
2018-07-08T05:22:20.698Z,94539.38
2018-07-08T05:24:50.281Z,94541.60
2018-07-08T05:27:19.592Z,94536.16
2018-07-08T05:29:48.969Z,94535.56
2018-07-08T05:32:18.390Z,94535.67
2018-07-08T05:34:47.819Z,94532.89
2018-07-08T05:37:17.433Z,94536.47
2018-07-08T05:39:47.733Z,94537.63
2018-07-08T05:42:17.838Z,94532.86
2018-07-08T05:44:47.326Z,94533.36
2018-07-08T05:47:19.758Z,94531.11
2018-07-08T05:49:49.180Z,94527.77
2018-07-08T05:52:18.545Z,94530.73
2018-07-08T05:54:47.674Z,94525.66
2018-07-08T05:57:17.106Z,94530.17
2018-07-08T05:59:46.393Z,94520.08
2018-07-08T06:02:16.066Z,94514.62
2018-07-08T06:04:45.081Z,94514.31
2018-07-08T06:07:14.267Z,94516.17
2018-07-08T06:09:43.778Z,94510.42
2018-07-08T06:12:13.103Z,94510.98
2018-07-08T06:14:44.240Z,94507.13
2018-07-08T06:17:13.605Z,94508.23
2018-07-08T06:19:42.906Z,94509.98
2018-07-08T06:22:12.010Z,94509.34
2018-07-08T06:24:41.148Z,94497.19
2018-07-08T06:27:10.827Z,94506.16
2018-07-08T06:29:40.158Z,94511.81
2018-07-08T06:32:09.670Z,94504.28
2018-07-08T06:34:39.264Z,94507.00
2018-07-08T06:37:08.353Z,94493.95
2018-07-08T06:39:37.367Z,94493.69
2018-07-08T06:42:06.845Z,94498.97
2018-07-08T06:44:36.435Z,94493.44
2018-07-08T06:47:05.915Z,94494.55
2018-07-08T06:49:38.652Z,94492.52
2018-07-08T06:52:08.882Z,94490.71
2018-07-08T06:54:38.312Z,94493.84
2018-07-08T06:57:07.787Z,94490.37
2018-07-08T06:59:37.465Z,94489.61
2018-07-08T07:02:06.772Z,94490.69
2018-07-08T07:04:36.260Z,94486.48
2018-07-08T07:07:05.596Z,94482.02
2018-07-08T07:09:35.161Z,94474.66
2018-07-08T07:12:04.585Z,94479.38
2018-07-08T07:14:34.094Z,94479.38
2018-07-08T07:17:03.583Z,94465.69
2018-07-08T07:19:32.917Z,94460.89
2018-07-08T07:22:02.303Z,94457.09
2018-07-08T07:24:31.827Z,94451.20
2018-07-08T07:27:01.716Z,94455.67
2018-07-08T07:29:31.066Z,94459.25
2018-07-08T07:32:03.069Z,94459.05
2018-07-08T07:34:32.460Z,94457.72
2018-07-08T07:37:02.000Z,94456.66
2018-07-08T07:39:32.343Z,94455.80
2018-07-08T07:42:01.973Z,94456.78
2018-07-08T07:44:31.354Z,94450.21
2018-07-08T07:47:01.388Z,94446.65
2018-07-08T07:49:31.290Z,94444.80
2018-07-08T07:52:00.734Z,94434.75
2018-07-08T07:54:30.401Z,94439.91
2018-07-08T07:56:59.883Z,94441.31
2018-07-08T07:59:29.337Z,94440.42
2018-07-08T08:01:58.757Z,94438.17
2018-07-08T08:04:28.204Z,94445.45
2018-07-08T08:06:58.656Z,94446.27
2018-07-08T08:09:28.051Z,94452.77
2018-07-08T08:11:57.492Z,94449.06
2018-07-08T08:14:26.915Z,94445.88
2018-07-08T08:16:56.476Z,94446.61
2018-07-08T08:19:26.043Z,94448.81
2018-07-08T08:21:55.541Z,94437.00
2018-07-08T08:24:25.048Z,94444.33
2018-07-08T08:26:55.159Z,94440.36
2018-07-08T08:29:24.760Z,94439.13
2018-07-08T08:31:54.400Z,94438.34
2018-07-08T08:35:02.610Z,94450.42
2018-07-08T08:37:36.956Z,94448.30
2018-07-08T08:40:06.734Z,94442.36
2018-07-08T08:42:36.445Z,94438.16
2018-07-08T08:45:06.153Z,94441.75
2018-07-08T08:47:35.928Z,94439.80
2018-07-08T08:50:05.414Z,94438.11
2018-07-08T08:52:34.799Z,94441.80
2018-07-08T08:55:04.281Z,94436.75
2018-07-08T08:57:33.861Z,94430.60
2018-07-08T09:00:03.172Z,94429.88
2018-07-08T09:02:32.440Z,94426.81
2018-07-08T09:05:01.787Z,94437.11
2018-07-08T09:07:31.236Z,94441.86
2018-07-08T09:10:00.669Z,94441.33
2018-07-08T09:12:30.849Z,94442.64
2018-07-08T09:15:00.271Z,94454.81
2018-07-08T09:17:29.718Z,94446.91
2018-07-08T09:19:59.237Z,94446.09
2018-07-08T09:22:29.562Z,94446.36
2018-07-08T09:24:58.947Z,94452.69
2018-07-08T09:27:28.313Z,94442.99
2018-07-08T09:29:57.751Z,94448.30
2018-07-08T09:32:27.649Z,94449.34
2018-07-08T09:34:57.069Z,94446.45
2018-07-08T09:37:26.494Z,94447.52
2018-07-08T09:39:56.060Z,94456.76
2018-07-08T09:42:25.766Z,94462.30
2018-07-08T09:44:55.280Z,94462.56
2018-07-08T09:47:24.725Z,94463.08
2018-07-08T09:49:54.276Z,94467.84
2018-07-08T09:52:24.654Z,94465.77
2018-07-08T09:54:54.430Z,94456.81
2018-07-08T09:57:23.732Z,94454.95
2018-07-08T09:59:53.179Z,94442.77
2018-07-08T10:02:22.676Z,94444.60
2018-07-08T10:04:52.144Z,94452.68
2018-07-08T10:07:21.688Z,94458.50
2018-07-08T10:09:51.056Z,94466.44
2018-07-08T10:12:20.565Z,94458.50
2018-07-08T10:14:49.859Z,94457.42
2018-07-08T10:17:19.616Z,94456.34
2018-07-08T10:19:49.188Z,94458.70
2018-07-08T10:22:18.387Z,94462.35
2018-07-08T10:24:48.474Z,94454.49
2018-07-08T10:28:29.829Z,94455.91
2018-07-08T10:30:59.455Z,94445.62
2018-07-08T10:33:38.302Z,94442.95
2018-07-08T10:36:08.261Z,94445.55
2018-07-08T10:38:38.996Z,94445.84
2018-07-08T10:41:08.217Z,94445.56
2018-07-08T10:43:37.629Z,94450.31
2018-07-08T10:46:07.400Z,94459.10
2018-07-08T10:48:36.870Z,94458.91
2018-07-08T10:51:06.499Z,94461.31
2018-07-08T10:53:36.027Z,94457.66
2018-07-08T10:56:05.574Z,94451.13
2018-07-08T10:58:35.002Z,94443.74
2018-07-08T11:01:04.326Z,94455.09
2018-07-08T11:03:33.853Z,94464.85
2018-07-08T11:06:03.402Z,94463.27
2018-07-08T11:08:33.041Z,94472.23
2018-07-08T11:11:02.344Z,94473.03
2018-07-08T11:13:31.577Z,94475.95
2018-07-08T11:16:01.161Z,94471.97
2018-07-08T11:18:30.614Z,94465.91
2018-07-08T11:21:00.261Z,94463.00
2018-07-08T11:23:29.780Z,94470.34
2018-07-08T11:25:59.776Z,94475.63
2018-07-08T11:28:29.280Z,94477.51
2018-07-08T11:30:59.117Z,94468.55
2018-07-08T11:33:28.362Z,94460.56
2018-07-08T11:35:57.743Z,94462.63
2018-07-08T11:38:27.186Z,94453.20
2018-07-08T11:40:56.577Z,94449.95
2018-07-08T11:43:25.980Z,94447.30
2018-07-08T11:45:55.489Z,94456.01
2018-07-08T11:48:24.893Z,94454.44
2018-07-08T11:50:54.220Z,94452.85
2018-07-08T11:53:23.507Z,94446.52
2018-07-08T11:55:52.807Z,94447.17
2018-07-08T11:58:22.300Z,94443.96
2018-07-08T12:00:51.492Z,94445.28
2018-07-08T12:03:21.031Z,94441.33
2018-07-08T12:05:50.717Z,94444.48
2018-07-08T12:08:20.353Z,94442.64
2018-07-08T12:10:49.733Z,94441.58
2018-07-08T12:13:19.061Z,94445.27
2018-07-08T12:15:48.379Z,94450.49
2018-07-08T12:18:17.619Z,94445.22
2018-07-08T12:20:47.145Z,94451.13
2018-07-08T12:23:17.216Z,94453.50
2018-07-08T12:25:46.970Z,94456.14
2018-07-08T12:28:16.277Z,94458.00
2018-07-08T12:30:45.871Z,94457.22
2018-07-08T12:33:15.454Z,94460.93
2018-07-08T12:35:44.878Z,94455.15
2018-07-08T12:38:14.415Z,94454.36
2018-07-08T12:40:43.932Z,94451.44
2018-07-08T12:43:14.245Z,94456.98
2018-07-08T12:45:43.803Z,94459.63
2018-07-08T12:48:13.694Z,94459.87
2018-07-08T12:50:43.191Z,94459.63
2018-07-08T12:53:12.616Z,94462.52
2018-07-08T12:55:41.966Z,94460.41
2018-07-08T12:58:11.490Z,94464.11
2018-07-08T13:00:41.578Z,94464.35
2018-07-08T13:03:10.987Z,94463.59
2018-07-08T13:05:40.322Z,94457.23
2018-07-08T13:08:09.763Z,94460.37
2018-07-08T13:10:39.447Z,94450.61
2018-07-08T13:13:08.843Z,94455.62
2018-07-08T13:15:38.332Z,94456.94
2018-07-08T13:18:07.758Z,94455.09
2018-07-08T13:20:37.047Z,94467.22
2018-07-08T13:23:06.397Z,94459.58
2018-07-08T13:25:35.940Z,94454.03
2018-07-08T13:28:05.640Z,94450.02
2018-07-08T13:30:35.107Z,94443.16
2018-07-08T13:33:04.606Z,94452.22
2018-07-08T13:35:33.967Z,94451.05
2018-07-08T13:38:03.345Z,94457.12
2018-07-08T13:40:33.278Z,94450.05
2018-07-08T13:43:04.310Z,94451.12
2018-07-08T13:45:33.767Z,94448.95
2018-07-08T13:48:03.061Z,94441.00
2018-07-08T13:50:32.612Z,94445.09
2018-07-08T13:53:02.107Z,94453.59
2018-07-08T13:55:31.941Z,94450.16
2018-07-08T13:58:01.633Z,94443.56
2018-07-08T14:00:31.243Z,94444.41
2018-07-08T14:03:00.734Z,94447.86
2018-07-08T14:05:30.520Z,94445.81
2018-07-08T14:08:00.082Z,94439.47
2018-07-08T14:10:29.446Z,94444.17
2018-07-08T14:12:59.371Z,94437.30
2018-07-08T14:15:30.849Z,94442.05
2018-07-08T14:18:00.183Z,94446.58
2018-07-08T14:20:29.530Z,94447.91
2018-07-08T14:22:59.160Z,94443.44
2018-07-08T14:25:28.676Z,94444.75
2018-07-08T14:27:58.053Z,94444.75
2018-07-08T14:30:27.580Z,94446.54
2018-07-08T14:32:57.176Z,94447.78
2018-07-08T14:35:26.723Z,94444.07
2018-07-08T14:37:56.197Z,94450.13
2018-07-08T14:40:26.305Z,94453.05
2018-07-08T14:42:55.752Z,94451.80
2018-07-08T14:45:25.213Z,94445.98
2018-07-08T14:47:54.523Z,94451.45
2018-07-08T14:50:23.944Z,94445.83
2018-07-08T14:52:53.277Z,94455.34
2018-07-08T14:55:22.596Z,94445.59
2018-07-08T14:57:51.925Z,94439.36
2018-07-08T15:00:21.609Z,94440.80
2018-07-08T15:02:51.103Z,94433.94
2018-07-08T15:05:20.639Z,94432.23
2018-07-08T15:07:50.113Z,94434.32
2018-07-08T15:10:19.406Z,94430.02
2018-07-08T15:12:48.870Z,94423.95
2018-07-08T15:15:18.392Z,94424.30
2018-07-08T15:17:48.145Z,94424.65
2018-07-08T15:20:17.574Z,94423.38
2018-07-08T15:22:47.471Z,94418.57
2018-07-08T15:25:18.183Z,94414.59
2018-07-08T15:27:48.263Z,94410.70
2018-07-08T15:30:17.813Z,94408.16
2018-07-08T15:32:47.379Z,94409.52
2018-07-08T15:35:16.786Z,94413.80
2018-07-08T15:37:46.363Z,94403.86
2018-07-08T15:40:15.914Z,94406.44
2018-07-08T15:42:45.557Z,94401.73
2018-07-08T15:45:15.729Z,94402.33
2018-07-08T15:47:45.135Z,94402.30
2018-07-08T15:50:14.782Z,94392.11
2018-07-08T15:52:44.444Z,94400.97
2018-07-08T15:55:13.886Z,94391.84
2018-07-08T15:57:45.094Z,94398.30
2018-07-08T16:00:15.785Z,94402.30
2018-07-08T16:02:46.650Z,94404.61
2018-07-08T16:05:16.407Z,94392.23
2018-07-08T16:07:45.877Z,94389.44
2018-07-08T16:10:15.392Z,94392.27
2018-07-08T16:12:44.925Z,94389.39
2018-07-08T16:15:14.685Z,94379.19
2018-07-08T16:17:44.272Z,94383.11
2018-07-08T16:20:15.392Z,94381.30
2018-07-08T16:22:44.896Z,94372.61
2018-07-08T16:25:15.043Z,94374.86
2018-07-08T16:27:44.384Z,94381.28
2018-07-08T16:30:14.762Z,94381.70
2018-07-08T16:32:44.443Z,94380.66
2018-07-08T16:35:14.468Z,94384.61
2018-07-08T16:37:44.124Z,94384.77
2018-07-08T16:40:15.083Z,94379.53
2018-07-08T16:42:45.496Z,94381.86
2018-07-08T16:45:15.470Z,94378.44
2018-07-08T16:47:46.668Z,94382.34
2018-07-08T16:50:17.730Z,94386.59
2018-07-08T16:52:47.464Z,94386.83
2018-07-08T16:55:17.793Z,94389.06
2018-07-08T16:57:48.979Z,94399.20
2018-07-08T17:00:18.996Z,94403.24
2018-07-08T17:02:48.375Z,94398.77
2018-07-08T17:05:18.169Z,94392.14
2018-07-08T17:07:47.906Z,94398.66
2018-07-08T17:10:17.299Z,94408.98
2018-07-08T17:12:46.988Z,94408.52
2018-07-08T17:15:17.592Z,94413.29
2018-07-08T17:17:48.469Z,94417.86
2018-07-08T17:20:19.343Z,94413.44
2018-07-08T17:22:48.760Z,94412.66
2018-07-08T17:25:18.443Z,94409.23
2018-07-08T17:27:48.407Z,94407.11
2018-07-08T17:30:18.776Z,94410.55
2018-07-08T17:32:48.154Z,94420.61
2018-07-08T17:35:18.592Z,94422.19
2018-07-08T17:37:48.168Z,94427.46
2018-07-08T17:40:17.771Z,94435.66
2018-07-08T17:42:48.123Z,94440.12
2018-07-08T17:45:19.627Z,94434.06
2018-07-08T17:47:52.095Z,94436.18
2018-07-08T17:50:22.590Z,94436.98
2018-07-08T17:52:54.225Z,94443.83
2018-07-08T17:55:24.000Z,94443.03
2018-07-08T17:57:56.135Z,94443.02
2018-07-08T18:00:26.620Z,94441.69
2018-07-08T18:02:56.918Z,94439.05
2018-07-08T18:05:27.263Z,94448.00
2018-07-08T18:07:56.979Z,94449.56
2018-07-08T18:10:28.361Z,94460.08
2018-07-08T18:12:58.351Z,94463.22
2018-07-08T18:15:28.470Z,94460.59
2018-07-08T18:18:00.067Z,94463.77
2018-07-08T18:20:30.407Z,94462.17
2018-07-08T18:23:00.386Z,94458.21
2018-07-08T18:25:30.903Z,94453.46
2018-07-08T18:28:00.465Z,94457.66
2018-07-08T18:30:29.884Z,94458.14
2018-07-08T18:32:59.418Z,94463.94
2018-07-08T18:35:30.486Z,94464.88
2018-07-08T18:38:00.285Z,94466.97
2018-07-08T18:40:29.869Z,94460.95
2018-07-08T18:42:59.306Z,94466.45
2018-07-08T18:45:29.155Z,94470.92
2018-07-08T18:47:58.927Z,94465.64
2018-07-08T18:50:29.116Z,94468.84
2018-07-08T18:52:59.054Z,94470.92
2018-07-08T18:55:29.845Z,94464.38
2018-07-08T18:57:59.450Z,94464.32
2018-07-08T19:00:29.938Z,94469.25
2018-07-08T19:02:59.460Z,94471.01
2018-07-08T19:05:28.859Z,94472.03
2018-07-08T19:07:58.304Z,94473.89
2018-07-08T19:10:28.610Z,94479.46
2018-07-08T19:12:59.160Z,94482.80
2018-07-08T19:15:29.366Z,94493.23
2018-07-08T19:17:59.426Z,94490.58
2018-07-08T19:20:32.219Z,94496.74
2018-07-08T19:23:02.752Z,94499.68
2018-07-08T19:25:33.030Z,94506.33
2018-07-08T19:28:04.667Z,94510.25
2018-07-08T19:30:35.716Z,94515.77
2018-07-08T19:33:05.308Z,94514.48
2018-07-08T19:35:41.386Z,94506.95
2018-07-08T19:38:12.304Z,94517.20
2018-07-08T19:40:43.075Z,94523.59
2018-07-08T19:43:14.858Z,94521.76
2018-07-08T19:45:44.575Z,94528.50
2018-07-08T19:48:14.477Z,94527.98
2018-07-08T19:50:45.202Z,94533.08
2018-07-08T19:53:16.233Z,94540.14
2018-07-08T19:55:45.653Z,94540.16
2018-07-08T19:58:15.752Z,94533.25
2018-07-08T20:00:46.361Z,94545.70
2018-07-08T20:03:16.220Z,94546.56
2018-07-08T20:05:45.729Z,94545.57
2018-07-08T20:08:15.418Z,94552.66
2018-07-08T20:10:46.404Z,94558.59
2018-07-08T20:13:15.708Z,94550.91
2018-07-08T20:15:45.538Z,94545.94
2018-07-08T20:18:15.179Z,94545.97
2018-07-08T20:20:44.822Z,94545.98
2018-07-08T20:23:14.439Z,94553.05
2018-07-08T20:25:44.054Z,94548.64
2018-07-08T20:28:13.416Z,94546.67
2018-07-08T20:30:43.084Z,94553.06
2018-07-08T20:33:13.300Z,94550.25
2018-07-08T20:35:43.507Z,94549.55
2018-07-08T20:38:13.322Z,94550.47
2018-07-08T20:40:44.073Z,94551.42
2018-07-08T20:43:13.550Z,94554.66
2018-07-08T20:45:42.906Z,94561.64
2018-07-08T20:48:14.033Z,94563.23
2018-07-08T20:50:43.559Z,94565.61
2018-07-08T20:53:13.597Z,94564.88
2018-07-08T20:55:43.427Z,94554.62
2018-07-08T20:58:12.769Z,94556.57
2018-07-08T21:00:42.496Z,94559.92
2018-07-08T21:03:12.624Z,94561.55
2018-07-08T21:05:42.827Z,94572.28
2018-07-08T21:08:12.290Z,94572.56
2018-07-08T21:10:42.601Z,94568.86
2018-07-08T21:13:12.081Z,94569.70
2018-07-08T21:15:41.697Z,94568.86
2018-07-08T21:18:11.204Z,94567.39
2018-07-08T21:20:41.094Z,94566.59
2018-07-08T21:23:10.557Z,94565.77
2018-07-08T21:25:40.114Z,94555.23
2018-07-08T21:28:09.540Z,94555.52
2018-07-08T21:30:39.273Z,94560.04
2018-07-08T21:33:08.697Z,94562.34
2018-07-08T21:35:38.379Z,94563.86
2018-07-08T21:38:07.739Z,94564.70
2018-07-08T21:40:37.036Z,94561.45
2018-07-08T21:43:06.353Z,94561.73
2018-07-08T21:45:35.800Z,94564.00
2018-07-08T21:48:05.051Z,94566.03
2018-07-08T21:50:34.423Z,94557.70
2018-07-08T21:53:03.663Z,94566.41
2018-07-08T21:55:33.046Z,94567.27
2018-07-08T21:58:02.308Z,94565.20
2018-07-08T22:00:33.416Z,94563.54
2018-07-08T22:03:02.872Z,94568.22
2018-07-08T22:05:32.493Z,94570.81
2018-07-08T22:08:04.941Z,94575.09
2018-07-08T22:10:34.829Z,94578.86
2018-07-08T22:13:04.571Z,94571.23
2018-07-08T22:15:34.037Z,94574.03
2018-07-08T22:18:03.591Z,94577.45
2018-07-08T22:20:32.890Z,94577.55
2018-07-08T22:23:02.295Z,94573.03
2018-07-08T22:25:32.334Z,94568.07
2018-07-08T22:28:01.771Z,94564.45
2018-07-08T22:30:31.340Z,94565.53
2018-07-08T22:33:00.796Z,94568.31
2018-07-08T22:35:30.449Z,94569.03
2018-07-08T22:37:59.983Z,94564.06
2018-07-08T22:40:29.455Z,94560.13
2018-07-08T22:42:58.823Z,94562.47
2018-07-08T22:45:28.306Z,94559.56
2018-07-08T22:47:58.596Z,94561.68
2018-07-08T22:50:28.102Z,94554.61
2018-07-08T22:52:57.523Z,94558.86
2018-07-08T22:55:26.848Z,94555.20
2018-07-08T22:57:56.119Z,94560.75
2018-07-08T23:00:36.064Z,94564.56
2018-07-08T23:03:16.077Z,94567.27
2018-07-08T23:05:45.435Z,94563.81
2018-07-08T23:08:15.056Z,94560.39
2018-07-08T23:10:44.545Z,94559.64
2018-07-08T23:13:13.857Z,94559.33
2018-07-08T23:15:43.209Z,94562.86
2018-07-08T23:18:12.654Z,94562.81
2018-07-08T23:20:42.040Z,94563.17
2018-07-08T23:23:11.437Z,94555.91
2018-07-08T23:25:40.820Z,94553.69
2018-07-08T23:28:10.333Z,94555.11
2018-07-08T23:30:39.730Z,94558.13
2018-07-08T23:33:09.083Z,94558.28
2018-07-08T23:35:39.326Z,94555.00
2018-07-08T23:38:08.810Z,94557.72
2018-07-08T23:40:38.909Z,94551.92
2018-07-08T23:43:08.616Z,94546.72
2018-07-08T23:45:38.855Z,94545.65
2018-07-08T23:48:08.262Z,94541.77
2018-07-08T23:50:38.275Z,94545.98
2018-07-08T23:53:08.284Z,94544.11
2018-07-08T23:55:37.471Z,94544.06
2018-07-08T23:58:07.176Z,94549.13
